createdAt,value
2019-05-18T00:01:40.962Z,12.10
2019-05-18T00:04:12.560Z,12.00
2019-05-18T00:06:45.823Z,12.00
2019-05-18T00:09:15.837Z,11.90
2019-05-18T00:11:46.132Z,11.90
2019-05-18T00:14:15.635Z,11.90
2019-05-18T00:16:45.476Z,11.90
2019-05-18T00:19:15.168Z,11.90
2019-05-18T00:21:46.331Z,11.80
2019-05-18T00:24:15.761Z,11.80
2019-05-18T00:26:45.107Z,11.80
2019-05-18T00:29:14.367Z,11.80
2019-05-18T00:31:47.842Z,11.70
2019-05-18T00:34:22.919Z,11.70
2019-05-18T00:39:34.089Z,11.50
2019-05-18T00:42:04.781Z,11.50
2019-05-18T00:44:34.615Z,11.40
2019-05-18T00:47:04.299Z,11.40
2019-05-18T00:49:35.193Z,11.40
2019-05-18T00:52:29.391Z,11.40
2019-05-18T00:55:09.478Z,11.40
2019-05-18T00:57:40.612Z,11.50
2019-05-18T01:00:13.151Z,11.50
2019-05-18T01:02:44.908Z,11.40
2019-05-18T01:05:14.842Z,11.40
2019-05-18T01:07:47.644Z,11.30
2019-05-18T01:10:19.969Z,11.30
2019-05-18T01:12:54.162Z,11.30
2019-05-18T01:15:25.844Z,11.20
2019-05-18T01:18:03.127Z,11.20
2019-05-18T01:20:40.172Z,11.20
2019-05-18T01:23:13.993Z,11.10
2019-05-18T01:25:54.973Z,11.10
2019-05-18T01:28:28.490Z,11.20
2019-05-18T01:31:00.951Z,11.20
2019-05-18T01:33:30.151Z,11.20
2019-05-18T01:36:03.845Z,11.20
2019-05-18T01:38:41.785Z,11.20
2019-05-18T01:41:14.191Z,11.10
2019-05-18T01:43:45.459Z,11.10
2019-05-18T01:46:29.447Z,11.10
2019-05-18T01:49:02.899Z,11.10
2019-05-18T01:51:33.160Z,11.00
2019-05-18T01:54:04.966Z,11.00
2019-05-18T01:56:34.423Z,11.00
2019-05-18T01:59:04.972Z,11.00
2019-05-18T02:01:37.548Z,11.00
2019-05-18T02:04:06.814Z,11.00
2019-05-18T02:06:36.295Z,10.90
2019-05-18T02:09:13.657Z,10.90
2019-05-18T02:11:50.413Z,10.90
2019-05-18T02:14:22.399Z,10.90
2019-05-18T02:16:52.901Z,10.90
2019-05-18T02:19:24.926Z,10.90
2019-05-18T02:21:58.498Z,11.00
2019-05-18T02:24:28.247Z,11.00
2019-05-18T02:26:59.802Z,10.90
2019-05-18T02:29:32.205Z,10.90
2019-05-18T02:32:03.058Z,10.80
2019-05-18T02:34:43.579Z,10.60
2019-05-18T02:37:13.063Z,10.50
2019-05-18T02:39:42.176Z,10.30
2019-05-18T02:42:13.620Z,10.30
2019-05-18T02:44:43.956Z,10.20
2019-05-18T02:47:13.415Z,10.10
2019-05-18T02:49:42.619Z,10.10
2019-05-18T02:52:13.599Z,10.10
2019-05-18T02:54:44.477Z,10.10
2019-05-18T02:57:14.472Z,10.00
2019-05-18T02:59:48.684Z,10.00
2019-05-18T03:02:22.848Z,10.00
2019-05-18T03:04:54.124Z,10.00
2019-05-18T03:07:28.264Z,10.00
2019-05-18T03:09:57.738Z,10.00
2019-05-18T03:12:27.000Z,10.00
2019-05-18T03:14:56.454Z,10.00
2019-05-18T03:17:29.109Z,10.00
2019-05-18T03:19:58.952Z,10.00
2019-05-18T03:22:28.123Z,10.00
2019-05-18T03:24:57.919Z,9.90
2019-05-18T03:27:28.119Z,9.90
2019-05-18T03:29:57.237Z,9.80
2019-05-18T03:32:26.365Z,9.80
2019-05-18T03:34:55.634Z,9.70
2019-05-18T03:37:25.154Z,9.70
2019-05-18T03:39:54.373Z,9.60
2019-05-18T03:42:23.783Z,9.60
2019-05-18T03:44:54.637Z,9.70
2019-05-18T03:47:24.335Z,9.80
2019-05-18T03:49:53.811Z,9.90
2019-05-18T03:52:22.987Z,10.00
2019-05-18T03:54:52.163Z,10.00
2019-05-18T03:57:21.328Z,10.10
2019-05-18T03:59:50.813Z,10.20
2019-05-18T04:02:20.065Z,10.20
2019-05-18T04:04:49.206Z,10.30
2019-05-18T04:07:18.870Z,10.30
2019-05-18T04:09:54.926Z,10.30
2019-05-18T04:12:25.516Z,10.40
2019-05-18T04:14:55.904Z,10.40
2019-05-18T04:17:29.494Z,10.50
2019-05-18T04:46:26.742Z,10.10
2019-05-18T05:16:48.651Z,11.60
2019-05-18T05:37:07.682Z,12.40
2019-05-18T05:46:41.614Z,12.40
2019-05-18T05:49:31.776Z,12.30
2019-05-18T05:52:02.005Z,12.30
2019-05-18T05:54:31.440Z,12.20
2019-05-18T05:57:05.161Z,12.10
2019-05-18T05:59:35.261Z,12.10
2019-05-18T06:02:08.997Z,12.10
2019-05-18T06:04:41.489Z,12.30
2019-05-18T06:07:10.838Z,12.30
2019-05-18T06:09:43.544Z,12.30
2019-05-18T06:12:14.240Z,12.40
2019-05-18T06:14:46.475Z,12.40
2019-05-18T06:17:20.269Z,12.40
2019-05-18T06:19:50.777Z,12.40
2019-05-18T06:22:22.080Z,12.50
2019-05-18T06:24:59.393Z,12.50
2019-05-18T06:27:29.777Z,12.50
2019-05-18T06:29:59.411Z,12.50
2019-05-18T06:32:30.368Z,12.50
2019-05-18T06:35:14.404Z,12.50
2019-05-18T06:38:22.813Z,12.60
2019-05-18T06:42:05.738Z,12.70
2019-05-18T06:51:07.920Z,13.30
2019-05-18T06:53:43.128Z,13.60
2019-05-18T06:56:45.730Z,13.70
2019-05-18T07:00:53.723Z,13.90
2019-05-18T07:03:34.029Z,14.10
2019-05-18T07:06:13.581Z,14.40
2019-05-18T07:09:13.993Z,14.70
2019-05-18T07:11:42.210Z,15.00
2019-05-18T07:14:25.162Z,15.40
2019-05-18T07:16:51.511Z,15.70
2019-05-18T07:19:23.031Z,16.00
2019-05-18T07:21:58.651Z,16.20
2019-05-18T07:24:31.087Z,16.40
2019-05-18T07:27:02.872Z,16.50
2019-05-18T07:29:40.690Z,16.50
2019-05-18T07:32:15.282Z,16.50
2019-05-18T07:34:55.644Z,16.60
2019-05-18T07:37:28.337Z,16.70
2019-05-18T07:39:59.259Z,16.80
2019-05-18T07:42:35.823Z,16.90
2019-05-18T07:45:07.641Z,17.00
2019-05-18T07:47:39.673Z,17.20
2019-05-18T07:50:16.788Z,17.40
2019-05-18T07:52:52.068Z,17.60
2019-05-18T09:09:22.478Z,19.50
2019-05-18T09:11:52.982Z,19.70
2019-05-18T10:00:58.734Z,21.80
2019-05-18T10:03:32.734Z,22.00
2019-05-18T10:06:04.459Z,22.20
2019-05-18T10:08:33.747Z,22.10
2019-05-18T10:11:03.304Z,22.20
2019-05-18T10:13:32.485Z,22.30
2019-05-18T10:16:01.985Z,22.40
2019-05-18T10:18:31.661Z,22.70
2019-05-18T10:21:00.820Z,22.80
2019-05-18T10:23:30.791Z,23.00
2019-05-18T10:26:00.007Z,23.10
2019-05-18T10:28:30.343Z,23.20
2019-05-18T10:31:04.917Z,23.30
2019-05-18T10:33:34.137Z,23.50
2019-05-18T10:36:03.953Z,23.60
2019-05-18T10:38:33.475Z,23.70
2019-05-18T10:41:03.074Z,24.00
2019-05-18T10:43:32.444Z,24.10
2019-05-18T10:46:02.260Z,24.10
2019-05-18T10:48:33.499Z,24.10
2019-05-18T10:51:05.776Z,23.90
2019-05-18T10:53:35.131Z,23.90
2019-05-18T10:56:04.615Z,24.00
2019-05-18T10:58:33.847Z,24.20
2019-05-18T11:01:03.381Z,24.40
2019-05-18T11:03:33.546Z,24.50
2019-05-18T11:06:02.807Z,24.60
2019-05-18T11:08:33.633Z,24.70
2019-05-18T11:11:03.210Z,24.80
2019-05-18T11:13:32.711Z,24.80
2019-05-18T11:16:01.961Z,24.50
2019-05-18T11:18:31.531Z,24.40
2019-05-18T11:21:00.707Z,24.50
2019-05-18T11:23:42.816Z,24.80
2019-05-18T11:26:00.940Z,24.80
2019-05-18T11:28:30.413Z,25.00
2019-05-18T11:30:59.641Z,25.40
2019-05-18T11:33:28.872Z,25.80
2019-05-18T11:35:58.038Z,26.00
2019-05-18T11:38:27.511Z,26.10
2019-05-18T11:40:57.041Z,26.20
2019-05-18T11:43:26.221Z,26.30
2019-05-18T11:45:55.409Z,26.30
2019-05-18T11:48:24.683Z,26.20
2019-05-18T11:50:53.955Z,26.40
2019-05-18T11:53:23.154Z,26.60
2019-05-18T11:55:52.475Z,26.70
2019-05-18T11:58:21.643Z,26.90
2019-05-18T12:00:51.432Z,27.20
2019-05-18T12:03:20.704Z,28.50
2019-05-18T12:05:50.012Z,30.00
2019-05-18T12:08:19.492Z,31.30
2019-05-18T12:10:48.674Z,32.40
2019-05-18T12:13:17.891Z,33.40
2019-05-18T12:15:47.069Z,34.40
2019-05-18T12:18:16.341Z,34.80
2019-05-18T12:20:45.846Z,35.00
2019-05-18T12:23:15.352Z,35.20
2019-05-18T12:25:45.135Z,34.80
2019-05-18T12:28:15.357Z,33.70
2019-05-18T12:30:47.359Z,32.90
2019-05-18T12:33:17.068Z,32.20
2019-05-18T12:35:46.268Z,31.80
2019-05-18T12:38:15.756Z,31.60
2019-05-18T12:40:48.393Z,31.30
2019-05-18T12:43:17.639Z,31.30
2019-05-18T12:45:46.938Z,30.80
2019-05-18T12:48:16.516Z,30.40
2019-05-18T12:50:46.113Z,30.20
2019-05-18T12:53:17.634Z,30.00
2019-05-18T12:55:46.284Z,29.70
2019-05-18T12:58:15.796Z,29.50
2019-05-18T13:00:47.894Z,29.30
2019-05-18T13:03:19.668Z,29.40
2019-05-18T13:05:55.044Z,30.00
2019-05-18T13:08:24.392Z,31.40
2019-05-18T13:10:54.293Z,33.20
2019-05-18T13:13:23.852Z,34.60
2019-05-18T13:15:56.200Z,35.00
2019-05-18T13:18:25.490Z,35.10
2019-05-18T13:20:54.654Z,35.20
2019-05-18T13:23:24.283Z,35.30
2019-05-18T13:25:53.907Z,35.40
2019-05-18T13:28:23.378Z,35.50
2019-05-18T13:30:52.894Z,35.10
2019-05-18T13:33:22.390Z,34.30
2019-05-18T13:35:52.809Z,33.20
2019-05-18T13:38:22.106Z,32.40
2019-05-18T13:40:51.552Z,32.80
2019-05-18T13:43:28.242Z,33.00
2019-05-18T13:45:57.647Z,33.20
2019-05-18T13:48:35.820Z,33.50
2019-05-18T13:51:05.591Z,33.60
2019-05-18T13:53:35.095Z,33.60
2019-05-18T13:56:06.410Z,32.50
2019-05-18T13:58:35.971Z,31.50
2019-05-18T14:01:05.896Z,30.70
2019-05-18T14:03:35.456Z,30.00
2019-05-18T14:06:04.717Z,29.40
2019-05-18T14:08:33.902Z,28.80
2019-05-18T14:11:03.182Z,28.50
2019-05-18T14:13:33.040Z,28.10
2019-05-18T14:16:02.283Z,27.90
2019-05-18T14:18:31.816Z,27.70
2019-05-18T14:21:01.311Z,27.50
2019-05-18T14:23:30.460Z,27.60
2019-05-18T14:25:59.967Z,27.60
2019-05-18T14:28:29.202Z,27.70
2019-05-18T14:30:59.524Z,27.80
2019-05-18T14:33:28.735Z,27.60
2019-05-18T14:35:57.940Z,27.70
2019-05-18T14:38:27.103Z,27.80
2019-05-18T14:40:56.279Z,27.90
2019-05-18T14:43:25.717Z,28.10
2019-05-18T14:45:54.836Z,28.00
2019-05-18T14:48:24.069Z,27.50
2019-05-18T14:50:53.686Z,26.70
2019-05-18T14:53:22.880Z,26.30
2019-05-18T14:55:52.094Z,26.10
2019-05-18T14:58:21.311Z,26.30
2019-05-18T15:00:50.465Z,26.50
2019-05-18T15:03:19.899Z,26.60
2019-05-18T15:05:49.052Z,26.70
2019-05-18T15:08:18.204Z,26.80
2019-05-18T15:10:47.674Z,26.50
2019-05-18T15:13:16.863Z,26.30
2019-05-18T15:15:46.016Z,26.50
2019-05-18T15:18:15.268Z,26.60
2019-05-18T15:20:44.499Z,26.30
2019-05-18T15:23:13.711Z,26.40
2019-05-18T15:25:50.895Z,26.50
2019-05-18T15:28:17.933Z,26.50
2019-05-18T15:30:47.722Z,26.50
2019-05-18T15:33:17.177Z,26.60
2019-05-18T15:35:46.753Z,26.70
2019-05-18T15:38:15.999Z,26.80
2019-05-18T15:40:48.030Z,26.90
2019-05-18T15:43:17.282Z,27.10
2019-05-18T15:45:46.832Z,27.10
2019-05-18T15:48:15.966Z,27.10
2019-05-18T15:50:45.345Z,27.30
2019-05-18T15:53:14.920Z,27.50
2019-05-18T15:55:44.152Z,27.50
2019-05-18T15:58:13.444Z,27.40
2019-05-18T16:00:42.937Z,27.40
2019-05-18T16:03:12.148Z,27.30
2019-05-18T16:05:41.311Z,27.20
2019-05-18T16:08:10.506Z,27.00
2019-05-18T16:10:40.101Z,26.90
2019-05-18T16:13:09.349Z,26.80
2019-05-18T16:15:38.508Z,26.90
2019-05-18T16:18:07.689Z,26.80
2019-05-18T16:20:36.843Z,26.70
2019-05-18T16:23:06.004Z,26.60
2019-05-18T16:25:35.772Z,26.60
2019-05-18T16:28:05.378Z,26.50
2019-05-18T16:30:34.592Z,26.20
2019-05-18T16:33:03.803Z,25.80
2019-05-18T16:35:33.544Z,25.40
2019-05-18T16:38:02.760Z,25.10
2019-05-18T16:40:32.540Z,24.80
2019-05-18T16:43:01.733Z,24.20
2019-05-18T16:45:31.263Z,24.20
2019-05-18T16:48:00.774Z,24.30
2019-05-18T16:50:30.390Z,24.00
2019-05-18T16:52:59.649Z,23.90
2019-05-18T16:55:28.830Z,23.70
2019-05-18T16:57:58.922Z,23.60
2019-05-18T17:00:28.144Z,23.50
2019-05-18T17:02:57.801Z,23.40
2019-05-18T17:05:27.384Z,23.30
2019-05-18T17:08:00.104Z,23.40
2019-05-18T17:10:30.239Z,23.50
2019-05-18T17:12:59.449Z,23.50
2019-05-18T17:15:28.681Z,23.60
2019-05-18T17:17:58.204Z,23.50
2019-05-18T17:20:27.450Z,23.50
2019-05-18T17:22:56.636Z,23.40
2019-05-18T17:25:25.882Z,23.40
2019-05-18T17:27:55.180Z,23.40
2019-05-18T17:30:24.360Z,23.30
2019-05-18T17:32:53.609Z,23.20
2019-05-18T17:35:23.556Z,23.00
2019-05-18T17:37:53.065Z,22.80
2019-05-18T17:40:22.768Z,22.60
2019-05-18T17:42:52.040Z,22.40
2019-05-18T17:45:21.306Z,22.20
2019-05-18T17:47:51.088Z,22.00
2019-05-18T17:50:20.463Z,21.90
2019-05-18T17:52:49.700Z,21.70
2019-05-18T17:55:18.895Z,21.60
2019-05-18T17:57:48.233Z,21.40
2019-05-18T18:00:18.064Z,21.30
2019-05-18T18:02:48.307Z,21.20
2019-05-18T18:05:17.777Z,21.10
2019-05-18T18:07:47.318Z,21.10
2019-05-18T18:10:17.975Z,21.00
2019-05-18T18:12:47.519Z,20.90
2019-05-18T18:15:16.833Z,20.80
2019-05-18T18:17:46.901Z,20.70
2019-05-18T18:20:16.677Z,20.60
2019-05-18T18:22:45.911Z,20.60
2019-05-18T18:25:15.635Z,20.50
2019-05-18T18:27:45.138Z,20.50
2019-05-18T18:30:16.143Z,20.40
2019-05-18T18:32:45.820Z,20.30
2019-05-18T18:35:15.540Z,20.30
2019-05-18T18:37:44.901Z,20.20
2019-05-18T18:40:14.558Z,20.20
2019-05-18T18:42:44.181Z,20.20
2019-05-18T18:45:31.928Z,20.10
2019-05-18T18:48:01.301Z,20.20
2019-05-18T18:50:39.486Z,20.00
2019-05-18T18:53:08.934Z,19.80
2019-05-18T18:55:40.143Z,19.40
2019-05-18T18:58:09.415Z,19.20
2019-05-18T19:00:38.764Z,18.90
2019-05-18T19:03:08.135Z,18.70
2019-05-18T19:05:48.588Z,18.50
2019-05-18T19:08:18.829Z,18.40
2019-05-18T19:10:48.887Z,18.30
2019-05-18T19:13:21.385Z,18.20
2019-05-18T19:15:50.715Z,18.10
2019-05-18T19:18:20.269Z,18.00
2019-05-18T19:20:49.595Z,17.80
2019-05-18T19:23:18.993Z,17.70
2019-05-18T19:25:48.732Z,17.60
2019-05-18T19:28:18.414Z,17.50
2019-05-18T19:30:50.313Z,17.30
2019-05-18T19:33:19.661Z,17.10
2019-05-18T19:35:49.028Z,16.80
2019-05-18T19:38:18.441Z,16.60
2019-05-18T19:40:47.665Z,16.30
2019-05-18T19:43:16.959Z,16.20
2019-05-18T19:45:46.529Z,16.10
2019-05-18T19:48:16.149Z,16.00
2019-05-18T19:50:48.004Z,15.90
2019-05-18T19:53:17.689Z,15.80
2019-05-18T19:55:47.896Z,15.70
2019-05-18T19:58:17.244Z,15.70
2019-05-18T20:00:46.860Z,15.70
2019-05-18T20:03:16.468Z,15.60
2019-05-18T20:05:45.847Z,15.60
2019-05-18T20:08:15.000Z,15.60
2019-05-18T20:10:46.840Z,15.60
2019-05-18T20:13:17.104Z,15.50
2019-05-18T20:15:46.594Z,15.50
2019-05-18T20:18:15.832Z,15.50
2019-05-18T20:20:45.105Z,15.40
2019-05-18T20:23:14.390Z,15.40
2019-05-18T20:25:43.831Z,15.40
2019-05-18T20:28:23.294Z,15.50
2019-05-18T20:30:44.139Z,15.50
2019-05-18T20:33:14.172Z,15.50
2019-05-18T20:35:43.514Z,15.50
2019-05-18T20:38:12.898Z,15.50
2019-05-18T20:40:42.115Z,15.50
2019-05-18T20:43:11.380Z,15.50
2019-05-18T20:45:40.664Z,15.40
2019-05-18T20:48:10.019Z,15.40
2019-05-18T20:50:39.356Z,15.40
2019-05-18T20:53:08.835Z,15.40
2019-05-18T20:55:38.072Z,15.40
2019-05-18T20:58:07.258Z,15.40
2019-05-18T21:00:45.863Z,15.40
2019-05-18T21:03:16.696Z,15.40
2019-05-18T21:05:47.448Z,15.40
2019-05-18T21:08:19.418Z,15.40
2019-05-18T21:10:56.995Z,15.40
2019-05-18T21:13:27.981Z,15.30
2019-05-18T21:15:57.867Z,15.30
2019-05-18T21:18:27.255Z,15.30
2019-05-18T21:20:56.473Z,15.40
2019-05-18T21:23:25.964Z,15.40
2019-05-18T21:25:55.129Z,15.40
2019-05-18T21:28:24.599Z,15.40
2019-05-18T21:30:55.028Z,15.30
2019-05-18T21:33:25.135Z,15.30
2019-05-18T21:35:56.075Z,15.20
2019-05-18T21:38:26.302Z,15.20
2019-05-18T21:40:55.877Z,15.20
2019-05-18T21:43:25.383Z,15.20
2019-05-18T21:45:54.720Z,15.20
2019-05-18T21:48:23.887Z,15.20
2019-05-18T21:51:09.783Z,15.20
2019-05-18T21:53:39.017Z,15.10
2019-05-18T21:56:13.836Z,15.10
2019-05-18T21:58:46.265Z,15.00
2019-05-18T22:01:18.428Z,15.00
2019-05-18T22:03:58.284Z,15.00
2019-05-18T22:06:30.385Z,15.00
2019-05-18T22:09:00.636Z,15.00
2019-05-18T22:11:31.251Z,15.00
2019-05-18T22:14:00.481Z,15.00
2019-05-18T22:16:33.610Z,15.00
2019-05-18T22:19:04.930Z,14.90
2019-05-18T22:21:40.357Z,14.90
2019-05-18T22:24:09.624Z,14.90
2019-05-18T22:26:39.004Z,14.90
2019-05-18T22:29:08.748Z,14.80
2019-05-18T22:31:39.263Z,14.80
2019-05-18T22:34:14.038Z,14.80
2019-05-18T22:36:46.245Z,14.80
2019-05-18T22:39:20.502Z,14.70
2019-05-18T22:41:53.517Z,14.70
2019-05-18T22:44:22.804Z,14.70
2019-05-18T22:46:53.354Z,14.70
2019-05-18T22:49:22.926Z,14.70
2019-05-18T22:51:58.213Z,14.70
2019-05-18T22:54:29.321Z,14.70
2019-05-18T22:56:58.573Z,14.70
2019-05-18T22:59:29.394Z,14.70
2019-05-18T23:01:59.149Z,14.70
2019-05-18T23:04:37.223Z,14.70
2019-05-18T23:07:09.744Z,14.70
2019-05-18T23:09:42.809Z,14.70
2019-05-18T23:12:13.436Z,14.70
2019-05-18T23:14:42.996Z,14.60
2019-05-18T23:17:21.701Z,14.60
2019-05-18T23:19:51.849Z,14.60
2019-05-18T23:22:21.068Z,14.60
2019-05-18T23:24:50.370Z,14.60
2019-05-18T23:27:22.793Z,14.60
2019-05-18T23:29:57.705Z,14.60
2019-05-18T23:32:26.943Z,14.60
2019-05-18T23:34:56.956Z,14.60
2019-05-18T23:37:32.793Z,14.50
2019-05-18T23:40:10.729Z,14.50
2019-05-18T23:42:46.773Z,14.50
2019-05-18T23:45:16.002Z,14.50
2019-05-18T23:47:45.548Z,14.40
2019-05-18T23:50:19.301Z,14.30
2019-05-18T23:52:53.820Z,14.30
2019-05-18T23:55:29.447Z,14.30
2019-05-18T23:58:05.953Z,14.30
